createdAt,value
2023-08-19T00:01:12.128Z,97814.91
2023-08-19T00:03:40.373Z,97816.73
2023-08-19T00:06:11.456Z,97816.05
2023-08-19T00:08:39.875Z,97817.21
2023-08-19T00:11:08.008Z,97815.79
2023-08-19T00:13:36.268Z,97817.73
2023-08-19T00:16:05.450Z,97814.30
2023-08-19T00:18:33.927Z,97814.02
2023-08-19T00:21:02.162Z,97818.33
2023-08-19T00:23:30.200Z,97819.79
2023-08-19T00:25:58.479Z,97819.80
2023-08-19T00:28:26.961Z,97825.85
2023-08-19T00:30:55.133Z,97822.35
2023-08-19T00:33:26.211Z,97822.16
2023-08-19T00:35:54.553Z,97824.10
2023-08-19T00:38:23.101Z,97827.43
2023-08-19T00:40:51.177Z,97828.81
2023-08-19T00:43:19.343Z,97826.05
2023-08-19T00:45:52.675Z,97830.27
2023-08-19T00:48:21.564Z,97836.21
2023-08-19T00:50:50.889Z,97831.05
2023-08-19T00:53:19.414Z,97824.48
2023-08-19T00:55:47.490Z,97821.27
2023-08-19T00:58:15.628Z,97820.73
2023-08-19T01:00:44.496Z,97824.80
2023-08-19T01:03:12.544Z,97828.02
2023-08-19T01:06:03.732Z,97830.04
2023-08-19T01:08:41.712Z,97831.71
2023-08-19T01:11:37.889Z,97831.42
2023-08-19T01:14:24.531Z,97824.88
2023-08-19T01:16:55.132Z,97821.81
2023-08-19T01:19:33.923Z,97825.06
2023-08-19T01:22:05.964Z,97828.69
2023-08-19T01:24:36.468Z,97829.98
2023-08-19T01:27:22.333Z,97826.48
2023-08-19T01:29:50.526Z,97824.17
2023-08-19T01:32:21.368Z,97826.30
2023-08-19T01:34:50.695Z,97826.15
2023-08-19T01:37:31.318Z,97821.91
2023-08-19T01:40:02.207Z,97817.86
2023-08-19T01:42:33.884Z,97823.36
2023-08-19T01:45:04.140Z,97820.55
2023-08-19T01:47:32.935Z,97821.25
2023-08-19T01:50:01.453Z,97820.77
2023-08-19T01:52:29.498Z,97822.58
2023-08-19T01:54:57.740Z,97821.34
2023-08-19T01:57:29.318Z,97821.38
2023-08-19T01:59:57.886Z,97823.01
2023-08-19T02:02:26.057Z,97821.53
2023-08-19T02:04:54.151Z,97822.05
2023-08-19T02:07:22.335Z,97823.34
2023-08-19T02:09:50.399Z,97819.23
2023-08-19T02:12:18.712Z,97822.55
2023-08-19T02:14:46.629Z,97826.98
2023-08-19T02:17:14.690Z,97827.88
2023-08-19T02:19:42.609Z,97826.12
2023-08-19T02:22:10.756Z,97824.43
2023-08-19T02:24:38.777Z,97817.62
2023-08-19T02:27:06.865Z,97817.81
2023-08-19T02:29:35.000Z,97817.41
2023-08-19T02:32:03.575Z,97818.90
2023-08-19T02:34:31.856Z,97822.87
2023-08-19T02:36:59.924Z,97822.85
2023-08-19T02:39:28.044Z,97823.57
2023-08-19T02:41:56.290Z,97823.36
2023-08-19T02:44:24.553Z,97820.85
2023-08-19T02:46:52.753Z,97823.45
2023-08-19T02:49:20.918Z,97825.17
2023-08-19T02:51:49.096Z,97827.29
2023-08-19T02:54:17.243Z,97829.77
2023-08-19T02:56:45.324Z,97834.17
2023-08-19T02:59:13.505Z,97837.26
2023-08-19T03:01:43.250Z,97838.63
2023-08-19T03:04:11.857Z,97837.54
2023-08-19T03:06:40.223Z,97842.70
2023-08-19T03:09:09.356Z,97848.42
2023-08-19T03:11:38.103Z,97848.11
2023-08-19T03:14:06.173Z,97849.57
2023-08-19T03:16:34.403Z,97849.41
2023-08-19T03:19:02.591Z,97854.87
2023-08-19T03:21:31.005Z,97853.73
2023-08-19T03:23:59.292Z,97852.34
2023-08-19T03:26:27.339Z,97853.19
2023-08-19T03:28:57.065Z,97850.10
2023-08-19T03:31:25.873Z,97849.75
2023-08-19T03:33:54.782Z,97850.55
2023-08-19T03:36:22.998Z,97850.82
2023-08-19T03:38:51.203Z,97850.59
2023-08-19T03:41:19.180Z,97849.95
2023-08-19T03:43:47.285Z,97849.06
2023-08-19T03:46:15.588Z,97850.48
2023-08-19T03:48:43.643Z,97852.08
2023-08-19T03:51:11.658Z,97857.30
2023-08-19T03:53:39.820Z,97857.95
2023-08-19T03:56:08.162Z,97859.38
2023-08-19T03:58:36.260Z,97859.65
2023-08-19T04:01:08.827Z,97854.72
2023-08-19T04:03:40.106Z,97852.36
2023-08-19T04:06:08.149Z,97853.89
2023-08-19T04:08:36.614Z,97854.27
2023-08-19T04:11:06.221Z,97852.21
2023-08-19T04:13:34.651Z,97848.63
2023-08-19T04:16:07.044Z,97854.95
2023-08-19T04:18:36.781Z,97857.33
2023-08-19T04:21:06.748Z,97861.12
2023-08-19T04:23:35.385Z,97859.78
2023-08-19T04:26:04.597Z,97857.84
2023-08-19T04:28:33.312Z,97854.88
2023-08-19T04:31:06.333Z,97857.73
2023-08-19T04:33:40.689Z,97858.25
2023-08-19T04:36:09.105Z,97863.14
2023-08-19T04:38:37.424Z,97862.65
2023-08-19T04:41:08.339Z,97863.29
2023-08-19T04:43:46.851Z,97864.48
2023-08-19T04:46:16.824Z,97868.02
2023-08-19T04:48:44.925Z,97870.20
2023-08-19T04:51:13.337Z,97871.64
2023-08-19T04:53:41.713Z,97870.19
2023-08-19T04:56:09.825Z,97869.14
2023-08-19T04:58:38.064Z,97870.56
2023-08-19T05:01:06.437Z,97873.25
2023-08-19T05:03:36.298Z,97875.80
2023-08-19T05:06:04.822Z,97876.97
2023-08-19T05:08:43.037Z,97873.63
2023-08-19T05:11:11.200Z,97871.73
2023-08-19T05:13:39.741Z,97870.88
2023-08-19T05:16:13.421Z,97872.07
2023-08-19T05:18:42.641Z,97873.16
2023-08-19T05:21:11.007Z,97871.90
2023-08-19T05:23:40.220Z,97871.13
2023-08-19T05:26:08.866Z,97871.64
2023-08-19T05:28:37.051Z,97874.73
2023-08-19T05:31:05.272Z,97873.41
2023-08-19T05:33:33.547Z,97872.98
2023-08-19T05:36:01.705Z,97871.31
2023-08-19T05:38:30.009Z,97871.66
2023-08-19T05:40:58.923Z,97870.73
2023-08-19T05:43:27.038Z,97871.16
2023-08-19T05:45:55.197Z,97868.75
2023-08-19T05:48:23.388Z,97869.75
2023-08-19T05:50:51.437Z,97871.82
2023-08-19T05:53:19.488Z,97868.02
2023-08-19T05:55:49.090Z,97869.52
2023-08-19T05:58:17.273Z,97868.12
2023-08-19T06:00:45.993Z,97872.84
2023-08-19T06:03:15.456Z,97869.27
2023-08-19T06:05:43.956Z,97868.15
2023-08-19T06:08:13.760Z,97871.27
2023-08-19T06:10:45.375Z,97868.81
2023-08-19T06:13:14.469Z,97868.55
2023-08-19T06:15:42.650Z,97872.08
2023-08-19T06:18:10.848Z,97873.91
2023-08-19T06:20:38.842Z,97874.84
2023-08-19T06:23:07.144Z,97875.91
2023-08-19T06:25:35.287Z,97875.02
2023-08-19T06:28:03.646Z,97874.52
2023-08-19T06:30:32.114Z,97874.90
2023-08-19T06:33:00.620Z,97877.12
2023-08-19T06:35:28.983Z,97877.01
2023-08-19T06:38:00.806Z,97878.23
2023-08-19T06:40:35.360Z,97879.94
2023-08-19T06:43:07.866Z,97879.27
2023-08-19T06:45:36.565Z,97879.10
2023-08-19T06:48:07.886Z,97876.53
2023-08-19T06:50:36.328Z,97880.35
2023-08-19T06:53:06.594Z,97883.09
2023-08-19T06:55:35.174Z,97883.79
2023-08-19T06:58:05.053Z,97886.98
2023-08-19T07:00:35.544Z,97886.67
2023-08-19T07:03:05.843Z,97884.85
2023-08-19T07:05:36.338Z,97888.45
2023-08-19T07:08:07.816Z,97893.36
2023-08-19T07:10:36.499Z,97897.55
2023-08-19T07:13:04.872Z,97898.24
2023-08-19T07:15:33.426Z,97898.46
2023-08-19T07:18:04.069Z,97895.50
2023-08-19T07:20:32.961Z,97894.64
2023-08-19T07:23:01.814Z,97898.12
2023-08-19T07:25:30.452Z,97899.02
2023-08-19T07:28:03.936Z,97898.08
2023-08-19T07:30:32.563Z,97896.23
2023-08-19T07:33:01.356Z,97899.01
2023-08-19T07:35:29.422Z,97900.13
2023-08-19T07:37:57.589Z,97899.65
2023-08-19T07:40:25.727Z,97900.33
2023-08-19T07:42:53.836Z,97901.30
2023-08-19T07:45:21.875Z,97898.85
2023-08-19T07:47:50.369Z,97899.23
2023-08-19T07:50:18.789Z,97897.92
2023-08-19T07:52:46.863Z,97902.07
2023-08-19T07:55:15.040Z,97901.86
2023-08-19T07:57:43.306Z,97897.06
2023-08-19T08:00:11.970Z,97893.11
2023-08-19T08:02:43.339Z,97894.19
2023-08-19T08:05:11.837Z,97890.68
2023-08-19T08:07:40.036Z,97887.16
2023-08-19T08:10:08.484Z,97883.88
2023-08-19T08:12:36.626Z,97880.36
2023-08-19T08:15:05.265Z,97879.77
2023-08-19T08:17:33.684Z,97882.98
2023-08-19T08:20:02.086Z,97876.07
2023-08-19T08:22:30.219Z,97876.77
2023-08-19T08:24:58.320Z,97878.16
2023-08-19T08:27:26.776Z,97883.48
2023-08-19T08:29:55.336Z,97883.56
2023-08-19T08:32:23.605Z,97878.45
2023-08-19T08:34:51.829Z,97877.50
2023-08-19T08:37:21.367Z,97874.52
2023-08-19T08:39:49.751Z,97877.28
2023-08-19T08:42:18.750Z,97877.66
2023-08-19T08:44:51.013Z,97877.61
2023-08-19T08:47:21.672Z,97879.58
2023-08-19T08:49:51.019Z,97883.60
2023-08-19T08:52:21.376Z,97882.39
2023-08-19T08:54:53.238Z,97879.48
2023-08-19T08:57:21.589Z,97875.98
2023-08-19T08:59:50.247Z,97874.45
2023-08-19T09:02:18.734Z,97874.61
2023-08-19T09:04:47.831Z,97874.10
2023-08-19T09:07:26.730Z,97873.30
2023-08-19T09:09:59.621Z,97877.52
2023-08-19T09:12:31.687Z,97872.95
2023-08-19T09:15:05.129Z,97872.21
2023-08-19T09:17:35.073Z,97873.67
2023-08-19T09:20:05.119Z,97868.54
2023-08-19T09:22:34.506Z,97873.02
2023-08-19T09:25:07.347Z,97871.83
2023-08-19T09:27:35.519Z,97864.34
2023-08-19T09:30:03.868Z,97861.61
2023-08-19T09:32:34.229Z,97866.21
2023-08-19T09:35:07.255Z,97861.38
2023-08-19T09:37:37.028Z,97862.38
2023-08-19T09:40:12.649Z,97867.41
2023-08-19T09:42:42.039Z,97867.77
2023-08-19T09:45:19.113Z,97861.69
2023-08-19T09:47:49.840Z,97864.52
2023-08-19T09:50:20.406Z,97867.98
2023-08-19T09:52:55.667Z,97869.91
2023-08-19T09:55:35.505Z,97870.63
2023-08-19T09:58:03.688Z,97868.73
2023-08-19T10:00:31.827Z,97869.96
2023-08-19T10:03:00.390Z,97868.42
2023-08-19T10:05:30.302Z,97867.30
2023-08-19T10:08:04.675Z,97859.35
2023-08-19T10:10:34.667Z,97853.34
2023-08-19T10:13:04.818Z,97856.94
2023-08-19T10:15:34.799Z,97859.48
2023-08-19T10:18:11.176Z,97857.95
2023-08-19T10:20:42.053Z,97853.25
2023-08-19T10:23:11.639Z,97849.98
2023-08-19T10:25:42.693Z,97849.80
2023-08-19T10:28:24.046Z,97843.17
2023-08-19T10:31:10.707Z,97839.27
2023-08-19T10:33:49.327Z,97837.94
2023-08-19T10:36:18.897Z,97834.31
2023-08-19T10:38:57.594Z,97834.08
2023-08-19T10:41:31.098Z,97833.34
2023-08-19T10:44:00.511Z,97830.30
2023-08-19T10:46:37.493Z,97828.15
2023-08-19T10:49:07.454Z,97828.98
2023-08-19T10:52:08.377Z,97832.08
2023-08-19T10:54:43.286Z,97829.00
2023-08-19T10:57:14.200Z,97826.04
2023-08-19T10:59:44.840Z,97823.28
2023-08-19T11:02:14.045Z,97827.84
2023-08-19T11:04:48.540Z,97824.32
2023-08-19T11:07:17.789Z,97823.70
2023-08-19T11:09:48.039Z,97823.96
2023-08-19T11:12:19.030Z,97822.80
2023-08-19T11:14:56.710Z,97820.95
2023-08-19T11:17:30.382Z,97820.52
2023-08-19T11:20:11.206Z,97820.02
2023-08-19T11:22:47.120Z,97813.73
2023-08-19T11:25:16.469Z,97811.65
2023-08-19T11:27:44.781Z,97808.86
2023-08-19T11:30:15.501Z,97809.70
2023-08-19T11:32:50.586Z,97807.94
2023-08-19T11:35:18.815Z,97811.87
2023-08-19T11:37:46.994Z,97810.58
2023-08-19T11:40:27.499Z,97809.12
2023-08-19T11:43:12.479Z,97810.13
2023-08-19T11:45:42.074Z,97805.95
2023-08-19T11:48:17.535Z,97801.58
2023-08-19T11:50:46.725Z,97799.23
2023-08-19T11:53:25.300Z,97797.95
2023-08-19T11:55:59.796Z,97802.85
2023-08-19T11:58:41.190Z,97803.33
2023-08-19T12:01:09.516Z,97804.16
2023-08-19T12:03:42.873Z,97801.08
2023-08-19T12:06:11.107Z,97803.27
2023-08-19T12:08:44.232Z,97803.70
2023-08-19T12:11:13.851Z,97796.52
2023-08-19T12:13:42.475Z,97796.52
2023-08-19T12:16:10.539Z,97801.07
2023-08-19T12:18:39.712Z,97799.14
2023-08-19T12:21:09.110Z,97798.04
2023-08-19T12:23:37.668Z,97792.66
2023-08-19T12:26:05.727Z,97794.41
2023-08-19T12:28:34.045Z,97788.81
2023-08-19T12:31:02.214Z,97780.30
2023-08-19T12:33:30.311Z,97779.21
2023-08-19T12:36:16.104Z,97780.60
2023-08-19T12:38:46.908Z,97780.81
2023-08-19T12:41:15.730Z,97777.93
2023-08-19T12:43:44.057Z,97773.31
2023-08-19T12:46:12.822Z,97771.24
2023-08-19T12:48:41.180Z,97770.20
2023-08-19T12:51:09.391Z,97768.73
2023-08-19T12:53:37.397Z,97768.64
2023-08-19T12:56:05.541Z,97768.16
2023-08-19T12:58:34.434Z,97770.13
2023-08-19T13:01:06.218Z,97769.27
2023-08-19T13:03:36.303Z,97770.39
2023-08-19T13:06:04.693Z,97766.85
2023-08-19T13:08:32.705Z,97764.49
2023-08-19T13:11:02.529Z,97761.71
2023-08-19T13:13:30.469Z,97759.95
2023-08-19T13:15:58.489Z,97755.09
2023-08-19T13:18:26.570Z,97752.08
2023-08-19T13:20:54.733Z,97752.28
2023-08-19T13:23:22.885Z,97753.94
2023-08-19T13:25:51.190Z,97750.57
2023-08-19T13:28:19.287Z,97748.23
2023-08-19T13:30:48.263Z,97749.09
2023-08-19T13:33:16.407Z,97746.20
2023-08-19T13:35:44.544Z,97745.95
2023-08-19T13:38:12.677Z,97744.36
2023-08-19T13:40:40.757Z,97741.20
2023-08-19T13:43:08.847Z,97743.45
2023-08-19T13:45:36.941Z,97743.08
2023-08-19T13:48:14.611Z,97738.34
2023-08-19T13:50:44.868Z,97732.60
2023-08-19T13:53:13.014Z,97732.00
2023-08-19T13:55:43.726Z,97730.02
2023-08-19T13:58:12.182Z,97725.02
2023-08-19T14:00:40.313Z,97722.27
2023-08-19T14:03:08.655Z,97720.36
2023-08-19T14:05:37.075Z,97718.50
2023-08-19T14:08:05.602Z,97716.02
2023-08-19T14:10:33.812Z,97715.05
2023-08-19T14:13:01.867Z,97717.77
2023-08-19T14:15:29.986Z,97714.05
2023-08-19T14:17:58.535Z,97714.70
2023-08-19T14:20:26.689Z,97713.52
2023-08-19T14:22:54.862Z,97717.98
2023-08-19T14:25:23.303Z,97716.60
2023-08-19T14:27:53.591Z,97712.22
2023-08-19T14:30:23.446Z,97710.97
2023-08-19T14:32:51.631Z,97709.73
2023-08-19T14:35:20.120Z,97714.20
2023-08-19T14:37:48.330Z,97714.14
2023-08-19T14:40:16.656Z,97713.89
2023-08-19T14:42:44.922Z,97711.31
2023-08-19T14:45:13.639Z,97713.71
2023-08-19T14:47:41.978Z,97713.88
2023-08-19T14:50:10.403Z,97711.59
2023-08-19T14:52:38.681Z,97711.64
2023-08-19T14:55:11.012Z,97709.77
2023-08-19T14:57:40.028Z,97706.41
2023-08-19T15:00:13.004Z,97700.00
2023-08-19T15:02:52.367Z,97696.92
2023-08-19T15:05:21.101Z,97693.81
2023-08-19T15:07:49.458Z,97693.14
2023-08-19T15:10:17.736Z,97692.46
2023-08-19T15:12:46.800Z,97696.77
2023-08-19T15:15:18.822Z,97695.14
2023-08-19T15:17:47.613Z,97694.88
2023-08-19T15:20:16.155Z,97691.34
2023-08-19T15:22:45.011Z,97692.25
2023-08-19T15:25:13.139Z,97695.33
2023-08-19T15:27:44.547Z,97697.14
2023-08-19T15:30:13.370Z,97692.67
2023-08-19T15:32:49.373Z,97693.52
2023-08-19T15:35:19.365Z,97689.63
2023-08-19T15:37:47.805Z,97696.05
2023-08-19T15:40:15.938Z,97696.52
2023-08-19T15:42:44.057Z,97698.45
2023-08-19T15:45:12.684Z,97701.13
2023-08-19T15:47:42.371Z,97703.05
2023-08-19T15:50:11.196Z,97704.67
2023-08-19T15:52:39.500Z,97706.06
2023-08-19T15:55:10.084Z,97711.86
2023-08-19T15:57:38.925Z,97714.08
2023-08-19T16:00:09.758Z,97715.50
2023-08-19T16:02:38.137Z,97719.66
2023-08-19T16:05:06.883Z,97720.98
2023-08-19T16:07:39.168Z,97719.23
2023-08-19T16:10:08.665Z,97722.10
2023-08-19T16:12:37.960Z,97722.55
2023-08-19T16:15:06.457Z,97722.29
2023-08-19T16:17:34.901Z,97724.55
2023-08-19T16:20:05.217Z,97726.89
2023-08-19T16:22:33.776Z,97727.64
2023-08-19T16:25:02.829Z,97728.91
2023-08-19T16:27:30.854Z,97732.29
2023-08-19T16:30:00.358Z,97739.71
2023-08-19T16:32:29.129Z,97738.96
2023-08-19T16:34:57.450Z,97739.48
2023-08-19T16:37:25.434Z,97738.84
2023-08-19T16:39:54.002Z,97739.28
2023-08-19T16:42:23.886Z,97742.39
2023-08-19T16:44:53.412Z,97743.26
2023-08-19T16:47:24.027Z,97746.08
2023-08-19T16:49:52.188Z,97748.05
2023-08-19T16:52:21.188Z,97748.47
2023-08-19T16:54:49.601Z,97752.22
2023-08-19T16:57:17.876Z,97754.72
2023-08-19T16:59:45.994Z,97760.64
2023-08-19T17:02:14.191Z,97763.98
2023-08-19T17:04:46.644Z,97763.35
2023-08-19T17:07:15.187Z,97764.13
2023-08-19T17:09:44.244Z,97762.77
2023-08-19T17:12:12.855Z,97765.40
2023-08-19T17:14:41.198Z,97768.54
2023-08-19T17:17:09.313Z,97765.72
2023-08-19T17:19:37.523Z,97767.70
2023-08-19T17:22:05.807Z,97771.30
2023-08-19T17:24:34.027Z,97773.02
2023-08-19T17:27:02.326Z,97773.88
2023-08-19T17:29:31.314Z,97773.71
2023-08-19T17:31:59.326Z,97771.65
2023-08-19T17:34:27.331Z,97768.81
2023-08-19T17:36:55.426Z,97765.91
2023-08-19T17:39:24.063Z,97768.36
2023-08-19T17:41:52.144Z,97771.13
2023-08-19T17:44:21.226Z,97767.14
2023-08-19T17:46:49.115Z,97771.85
2023-08-19T17:49:17.073Z,97773.16
2023-08-19T17:51:50.329Z,97779.63
2023-08-19T17:54:18.503Z,97783.39
2023-08-19T17:56:46.561Z,97785.14
2023-08-19T17:59:14.735Z,97786.50
2023-08-19T18:01:42.923Z,97789.73
2023-08-19T18:04:10.976Z,97791.04
2023-08-19T18:06:39.294Z,97792.11
2023-08-19T18:09:07.547Z,97795.64
2023-08-19T18:11:36.329Z,97802.89
2023-08-19T18:14:06.258Z,97806.86
2023-08-19T18:16:34.629Z,97809.48
2023-08-19T18:19:02.922Z,97811.80
2023-08-19T18:21:31.270Z,97815.09
2023-08-19T18:23:59.564Z,97821.39
2023-08-19T18:26:27.723Z,97822.42
2023-08-19T18:28:55.786Z,97825.15
2023-08-19T18:31:24.138Z,97823.86
2023-08-19T18:33:52.253Z,97831.34
2023-08-19T18:36:20.328Z,97833.68
2023-08-19T18:38:48.644Z,97831.18
2023-08-19T18:41:16.811Z,97834.75
2023-08-19T18:43:44.896Z,97836.38
2023-08-19T18:46:13.149Z,97838.46
2023-08-19T18:48:41.172Z,97837.90
2023-08-19T18:51:09.296Z,97835.94
2023-08-19T18:53:37.523Z,97834.42
2023-08-19T18:56:05.872Z,97831.36
2023-08-19T18:58:34.124Z,97834.43
2023-08-19T19:01:08.519Z,97839.21
2023-08-19T19:03:38.269Z,97840.33
2023-08-19T19:06:06.643Z,97838.78
2023-08-19T19:08:35.151Z,97840.48
2023-08-19T19:11:04.928Z,97840.95
2023-08-19T19:13:33.080Z,97842.30
2023-08-19T19:16:01.220Z,97839.46
2023-08-19T19:18:29.346Z,97837.68
2023-08-19T19:20:57.500Z,97838.23
2023-08-19T19:23:26.557Z,97840.56
2023-08-19T19:25:54.849Z,97842.00
2023-08-19T19:28:23.049Z,97846.43
2023-08-19T19:30:51.563Z,97849.45
2023-08-19T19:33:19.565Z,97846.58
2023-08-19T19:35:48.000Z,97849.37
2023-08-19T19:38:16.285Z,97849.34
2023-08-19T19:40:44.346Z,97852.14
2023-08-19T19:43:12.659Z,97851.27
2023-08-19T19:45:42.718Z,97847.63
2023-08-19T19:48:12.059Z,97850.61
2023-08-19T19:50:41.809Z,97855.89
2023-08-19T19:53:10.174Z,97862.45
2023-08-19T19:55:38.568Z,97866.05
2023-08-19T19:58:06.682Z,97867.09
2023-08-19T20:00:36.832Z,97868.18
2023-08-19T20:03:05.237Z,97868.50
2023-08-19T20:05:33.643Z,97870.31
2023-08-19T20:08:01.986Z,97869.45
2023-08-19T20:10:30.039Z,97873.09
2023-08-19T20:12:58.121Z,97877.52
2023-08-19T20:15:29.885Z,97874.71
2023-08-19T20:17:58.790Z,97875.05
2023-08-19T20:20:27.086Z,97878.04
2023-08-19T20:22:55.061Z,97875.86
2023-08-19T20:25:23.097Z,97871.39
2023-08-19T20:27:51.206Z,97872.73
2023-08-19T20:30:19.576Z,97876.30
2023-08-19T20:32:48.241Z,97878.86
2023-08-19T20:35:19.557Z,97883.30
2023-08-19T20:37:47.660Z,97884.13
2023-08-19T20:40:16.136Z,97882.84
2023-08-19T20:42:44.501Z,97887.98
2023-08-19T20:45:13.487Z,97885.26
2023-08-19T20:47:43.138Z,97881.95
2023-08-19T20:50:11.647Z,97878.11
2023-08-19T20:52:41.071Z,97874.08
2023-08-19T20:55:09.697Z,97873.35
2023-08-19T20:57:38.048Z,97876.20
2023-08-19T21:00:07.979Z,97869.24
2023-08-19T21:02:36.201Z,97872.38
2023-08-19T21:05:04.734Z,97871.45
2023-08-19T21:07:34.400Z,97875.23
2023-08-19T21:10:05.229Z,97873.87
2023-08-19T21:12:33.544Z,97871.98
2023-08-19T21:15:01.837Z,97866.05
2023-08-19T21:17:30.025Z,97865.26
2023-08-19T21:19:58.332Z,97869.77
2023-08-19T21:22:26.462Z,97870.31
2023-08-19T21:24:54.833Z,97871.46
2023-08-19T21:27:23.324Z,97870.57
2023-08-19T21:29:51.810Z,97871.83
2023-08-19T21:32:19.927Z,97871.63
2023-08-19T21:34:48.029Z,97871.38
2023-08-19T21:37:16.214Z,97871.46
2023-08-19T21:39:44.249Z,97872.80
2023-08-19T21:42:12.297Z,97875.13
2023-08-19T21:44:40.246Z,97877.96
2023-08-19T21:47:08.257Z,97884.57
2023-08-19T21:49:36.965Z,97887.67
2023-08-19T21:52:05.549Z,97884.59
2023-08-19T21:54:33.652Z,97887.81
2023-08-19T21:57:01.792Z,97889.20
2023-08-19T21:59:29.844Z,97886.89
2023-08-19T22:01:57.928Z,97887.83
2023-08-19T22:04:26.117Z,97890.23
2023-08-19T22:06:54.194Z,97890.17
2023-08-19T22:09:22.357Z,97893.50
2023-08-19T22:11:50.383Z,97893.84
2023-08-19T22:14:18.403Z,97895.95
2023-08-19T22:16:46.491Z,97898.78
2023-08-19T22:19:14.733Z,97904.98
2023-08-19T22:21:42.946Z,97906.21
2023-08-19T22:24:11.354Z,97910.40
2023-08-19T22:26:39.471Z,97910.27
2023-08-19T22:29:07.701Z,97912.43
2023-08-19T22:31:36.422Z,97913.05
2023-08-19T22:34:04.972Z,97911.46
2023-08-19T22:36:32.998Z,97908.11
2023-08-19T22:39:03.470Z,97910.98
2023-08-19T22:41:31.442Z,97913.70
2023-08-19T22:43:59.594Z,97913.34
2023-08-19T22:46:27.952Z,97909.27
2023-08-19T22:48:55.946Z,97909.33
2023-08-19T22:51:23.938Z,97909.80
2023-08-19T22:53:52.027Z,97910.34
2023-08-19T22:56:19.997Z,97909.37
2023-08-19T22:58:47.984Z,97912.62
2023-08-19T23:01:15.971Z,97913.16
2023-08-19T23:03:44.054Z,97912.38
2023-08-19T23:06:12.191Z,97914.70
2023-08-19T23:08:42.731Z,97912.17
2023-08-19T23:11:10.932Z,97910.34
2023-08-19T23:13:39.071Z,97910.56
2023-08-19T23:16:07.230Z,97910.45
2023-08-19T23:18:35.286Z,97909.23
2023-08-19T23:21:04.061Z,97909.05
2023-08-19T23:23:32.180Z,97913.88
2023-08-19T23:26:00.410Z,97916.75
2023-08-19T23:28:28.647Z,97920.19
2023-08-19T23:30:56.734Z,97921.81
2023-08-19T23:33:24.908Z,97918.49
2023-08-19T23:35:53.057Z,97911.98
2023-08-19T23:38:21.312Z,97908.67
2023-08-19T23:40:49.629Z,97910.95
2023-08-19T23:43:18.146Z,97916.45
2023-08-19T23:45:46.462Z,97921.11
2023-08-19T23:48:15.452Z,97921.42
2023-08-19T23:50:43.965Z,97924.51
2023-08-19T23:53:14.106Z,97928.36
2023-08-19T23:55:42.663Z,97925.88
2023-08-19T23:58:10.967Z,97926.91
